createdAt,value
2018-11-05T00:00:42.243Z,11.86
2018-11-05T00:03:10.984Z,11.88
2018-11-05T00:05:39.817Z,11.91
2018-11-05T00:08:08.579Z,11.88
2018-11-05T00:10:37.317Z,11.83
2018-11-05T00:13:06.509Z,11.84
2018-11-05T00:15:35.279Z,11.84
2018-11-05T00:18:04.077Z,11.90
2018-11-05T00:20:32.869Z,11.95
2018-11-05T00:23:01.666Z,11.98
2018-11-05T00:25:30.388Z,11.94
2018-11-05T00:27:59.277Z,11.95
2018-11-05T00:30:28.000Z,11.92
2018-11-05T00:32:56.724Z,11.96
2018-11-05T00:35:25.598Z,11.91
2018-11-05T00:37:54.386Z,11.96
2018-11-05T00:40:23.120Z,11.96
2018-11-05T00:42:51.897Z,11.96
2018-11-05T00:45:20.830Z,11.97
2018-11-05T00:47:49.587Z,12.00
2018-11-05T00:50:18.406Z,12.07
2018-11-05T00:52:47.194Z,12.08
2018-11-05T00:55:15.949Z,12.06
2018-11-05T00:57:44.900Z,12.02
2018-11-05T01:00:15.732Z,11.96
2018-11-05T01:02:44.670Z,11.97
2018-11-05T01:05:14.775Z,11.98
2018-11-05T01:07:44.498Z,11.98
2018-11-05T01:10:14.403Z,11.92
2018-11-05T01:12:43.424Z,11.99
2018-11-05T01:15:13.775Z,12.04
2018-11-05T01:17:42.618Z,12.00
2018-11-05T01:20:13.654Z,11.95
2018-11-05T01:22:42.525Z,12.01
2018-11-05T01:25:11.394Z,12.03
2018-11-05T01:27:40.161Z,11.99
2018-11-05T01:30:11.735Z,12.04
2018-11-05T01:32:40.524Z,11.95
2018-11-05T01:35:10.984Z,12.01
2018-11-05T01:37:39.686Z,12.00
2018-11-05T01:40:11.571Z,11.99
2018-11-05T01:42:40.537Z,12.03
2018-11-05T01:45:10.844Z,12.09
2018-11-05T01:47:40.034Z,12.02
2018-11-05T01:50:10.904Z,12.05
2018-11-05T01:52:39.710Z,12.02
2018-11-05T01:55:09.198Z,12.00
2018-11-05T01:57:38.509Z,12.00
2018-11-05T02:03:13.274Z,11.94
2018-11-05T02:05:42.631Z,11.90
2018-11-05T02:08:11.362Z,11.92
2018-11-05T02:10:40.157Z,11.90
2018-11-05T02:13:08.909Z,11.97
2018-11-05T02:15:37.626Z,12.00
2018-11-05T02:18:06.717Z,12.02
2018-11-05T02:20:35.495Z,11.93
2018-11-05T02:23:04.242Z,12.03
2018-11-05T02:25:33.119Z,11.97
2018-11-05T02:28:01.819Z,11.90
2018-11-05T02:30:30.636Z,11.94
2018-11-05T02:32:59.544Z,11.94
2018-11-05T02:35:28.323Z,11.95
2018-11-05T02:37:57.085Z,11.90
2018-11-05T02:40:25.845Z,11.93
2018-11-05T02:42:54.556Z,11.94
2018-11-05T02:45:23.238Z,11.97
2018-11-05T02:47:52.278Z,11.99
2018-11-05T02:50:21.036Z,12.05
2018-11-05T02:52:49.781Z,11.94
2018-11-05T02:55:18.729Z,12.03
2018-11-05T02:57:47.431Z,11.88
2018-11-05T03:00:18.330Z,11.91
2018-11-05T03:02:47.248Z,11.86
2018-11-05T03:05:17.221Z,11.90
2018-11-05T03:07:46.663Z,11.93
2018-11-05T03:10:15.483Z,11.95
2018-11-05T03:12:45.281Z,11.98
2018-11-05T03:15:15.177Z,12.00
2018-11-05T03:17:44.105Z,11.96
2018-11-05T03:20:13.929Z,12.04
2018-11-05T03:22:43.205Z,11.98
2018-11-05T03:25:12.933Z,11.99
2018-11-05T03:27:42.114Z,11.93
2018-11-05T03:30:15.885Z,11.86
2018-11-05T03:32:44.629Z,11.88
2018-11-05T03:35:13.925Z,11.89
2018-11-05T03:37:44.034Z,11.98
2018-11-05T03:40:13.446Z,11.93
2018-11-05T03:42:43.234Z,11.92
2018-11-05T03:45:14.483Z,11.94
2018-11-05T03:47:43.691Z,11.88
2018-11-05T03:50:15.156Z,11.85
2018-11-05T03:52:44.806Z,11.91
2018-11-05T03:55:14.209Z,11.84
2018-11-05T03:57:43.181Z,11.90
2018-11-05T04:00:14.575Z,11.92
2018-11-05T04:02:43.400Z,11.93
2018-11-05T04:05:13.005Z,11.98
2018-11-05T04:07:42.798Z,12.04
2018-11-05T04:10:12.739Z,11.99
2018-11-05T04:12:41.627Z,11.94
2018-11-05T04:15:10.932Z,12.06
2018-11-05T04:17:39.710Z,12.08
2018-11-05T04:20:10.399Z,12.07
2018-11-05T04:22:39.205Z,12.08
2018-11-05T04:25:08.104Z,11.98
2018-11-05T04:27:36.999Z,12.06
2018-11-05T04:30:07.891Z,12.03
2018-11-05T04:32:36.707Z,12.00
2018-11-05T04:35:05.710Z,12.04
2018-11-05T04:37:34.494Z,11.94
2018-11-05T04:40:03.404Z,11.97
2018-11-05T04:42:32.504Z,11.91
2018-11-05T04:45:01.230Z,11.93
2018-11-05T04:47:30.003Z,11.97
2018-11-05T04:49:58.797Z,11.91
2018-11-05T04:52:27.694Z,11.95
2018-11-05T04:54:56.445Z,12.02
2018-11-05T04:57:25.291Z,12.08
2018-11-05T04:59:54.050Z,12.03
2018-11-05T05:02:22.859Z,12.12
2018-11-05T05:04:51.717Z,12.06
2018-11-05T05:07:20.459Z,12.05
2018-11-05T05:09:49.211Z,11.99
2018-11-05T05:12:18.098Z,12.08
2018-11-05T05:14:46.889Z,12.08
2018-11-05T05:17:15.805Z,12.09
2018-11-05T05:19:44.682Z,12.09
2018-11-05T05:22:13.557Z,12.08
2018-11-05T05:24:43.066Z,12.04
2018-11-05T05:27:11.964Z,12.03
2018-11-05T05:29:40.736Z,12.12
2018-11-05T05:32:09.532Z,12.13
2018-11-05T05:34:38.333Z,12.12
2018-11-05T05:37:07.155Z,12.12
2018-11-05T05:39:35.976Z,12.06
2018-11-05T05:42:05.159Z,12.04
2018-11-05T05:44:33.954Z,12.02
2018-11-05T05:47:02.842Z,12.04
2018-11-05T05:49:31.725Z,12.15
2018-11-05T05:52:00.462Z,12.10
2018-11-05T05:54:29.282Z,12.11
2018-11-05T05:56:58.064Z,12.13
2018-11-05T05:59:26.843Z,12.09
2018-11-05T06:01:55.587Z,12.08
2018-11-05T06:04:24.419Z,12.14
2018-11-05T06:06:53.244Z,12.10
2018-11-05T06:09:21.988Z,12.17
2018-11-05T06:11:50.877Z,12.22
2018-11-05T06:14:19.716Z,12.20
2018-11-05T06:16:48.497Z,12.18
2018-11-05T06:19:17.379Z,12.17
2018-11-05T06:21:46.145Z,12.20
2018-11-05T06:24:15.611Z,12.32
2018-11-05T06:26:44.810Z,12.28
2018-11-05T06:29:13.702Z,12.21
2018-11-05T06:31:43.348Z,12.22
2018-11-05T06:34:13.358Z,12.26
2018-11-05T06:36:43.234Z,12.18
2018-11-05T06:39:13.219Z,12.20
2018-11-05T06:41:42.775Z,12.25
2018-11-05T06:44:11.640Z,12.31
2018-11-05T06:46:40.432Z,12.35
2018-11-05T06:49:09.750Z,12.33
2018-11-05T06:51:38.466Z,12.35
2018-11-05T06:54:07.326Z,12.26
2018-11-05T06:56:36.597Z,12.30
2018-11-05T06:59:05.493Z,12.33
2018-11-05T07:01:34.295Z,12.28
2018-11-05T07:04:03.202Z,12.29
2018-11-05T07:06:32.067Z,12.32
2018-11-05T07:09:00.854Z,12.30
2018-11-05T07:11:29.738Z,12.30
2018-11-05T07:13:58.533Z,12.24
2018-11-05T07:16:27.359Z,12.32
2018-11-05T07:18:56.628Z,12.33
2018-11-05T07:21:25.265Z,12.28
2018-11-05T07:23:54.049Z,12.37
2018-11-05T07:26:22.926Z,12.34
2018-11-05T07:28:51.729Z,12.37
2018-11-05T07:31:20.523Z,12.39
2018-11-05T07:33:49.485Z,12.39
2018-11-05T07:36:18.236Z,12.53
2018-11-05T07:38:47.129Z,12.54
2018-11-05T07:41:16.063Z,12.43
2018-11-05T07:43:44.831Z,12.48
2018-11-05T07:46:13.903Z,12.51
2018-11-05T07:48:43.824Z,12.55
2018-11-05T07:51:13.368Z,12.58
2018-11-05T07:53:42.190Z,12.65
2018-11-05T07:56:11.112Z,12.71
2018-11-05T07:58:40.296Z,12.67
2018-11-05T08:01:09.119Z,12.67
2018-11-05T08:03:38.468Z,12.71
2018-11-05T08:06:07.295Z,12.78
2018-11-05T08:08:36.245Z,12.71
2018-11-05T08:11:05.164Z,12.78
2018-11-05T08:13:34.048Z,12.78
2018-11-05T08:16:02.958Z,12.87
2018-11-05T08:18:32.322Z,12.81
2018-11-05T08:21:01.223Z,12.79
2018-11-05T08:23:30.032Z,12.81
2018-11-05T08:25:58.884Z,12.74
2018-11-05T08:28:27.702Z,12.78
2018-11-05T08:30:56.560Z,12.85
2018-11-05T08:33:25.438Z,12.95
2018-11-05T08:35:55.569Z,12.92
2018-11-05T08:38:24.363Z,12.98
2018-11-05T08:40:53.173Z,13.04
2018-11-05T08:43:21.966Z,13.13
2018-11-05T08:45:50.958Z,13.13
2018-11-05T08:48:19.842Z,13.17
2018-11-05T08:50:48.799Z,13.09
2018-11-05T08:53:17.631Z,13.10
2018-11-05T08:55:46.528Z,13.05
2018-11-05T08:58:15.451Z,13.03
2018-11-05T09:00:48.626Z,13.12
2018-11-05T09:03:17.511Z,13.05
2018-11-05T09:05:46.399Z,13.03
2018-11-05T09:08:15.299Z,13.21
2018-11-05T09:10:44.664Z,13.20
2018-11-05T09:13:14.111Z,13.21
2018-11-05T09:15:43.615Z,13.26
2018-11-05T09:18:12.474Z,13.30
2018-11-05T09:20:41.448Z,13.23
2018-11-05T09:23:10.554Z,13.30
2018-11-05T09:25:39.554Z,13.37
2018-11-05T09:28:08.508Z,13.37
2018-11-05T09:30:37.547Z,13.35
2018-11-05T09:33:06.538Z,13.30
2018-11-05T09:35:35.416Z,13.36
2018-11-05T09:38:04.278Z,13.35
2018-11-05T09:40:33.006Z,13.36
2018-11-05T09:43:01.824Z,13.38
2018-11-05T09:45:37.225Z,13.42
2018-11-05T09:48:06.198Z,13.44
2018-11-05T09:50:35.149Z,13.55
2018-11-05T09:53:04.328Z,13.40
2018-11-05T09:55:33.162Z,13.42
2018-11-05T09:58:02.025Z,13.48
2018-11-05T10:00:31.228Z,13.52
2018-11-05T10:03:02.409Z,13.53
2018-11-05T10:05:31.254Z,13.61
2018-11-05T10:08:00.171Z,13.63
2018-11-05T10:10:29.109Z,13.68
2018-11-05T10:12:57.893Z,13.67
2018-11-05T10:15:26.917Z,13.59
2018-11-05T10:17:55.743Z,13.66
2018-11-05T10:20:25.278Z,13.63
2018-11-05T10:22:54.449Z,13.48
2018-11-05T10:25:23.354Z,13.55
2018-11-05T10:27:52.599Z,13.62
2018-11-05T10:30:25.686Z,13.67
2018-11-05T10:32:54.631Z,13.71
2018-11-05T10:35:28.582Z,13.74
2018-11-05T10:37:57.502Z,13.62
2018-11-05T10:40:26.356Z,13.68
2018-11-05T10:42:55.258Z,13.56
2018-11-05T10:45:24.146Z,13.53
2018-11-05T10:47:52.972Z,13.59
2018-11-05T10:50:21.841Z,13.57
2018-11-05T10:52:51.725Z,13.57
2018-11-05T10:55:20.617Z,13.60
2018-11-05T10:57:50.185Z,13.53
2018-11-05T11:00:25.288Z,13.48
2018-11-05T11:02:59.238Z,13.54
2018-11-05T11:05:29.163Z,13.54
2018-11-05T11:07:58.796Z,13.58
2018-11-05T11:10:28.633Z,13.56
2018-11-05T11:12:57.653Z,13.66
2018-11-05T11:15:26.553Z,13.61
2018-11-05T11:17:56.022Z,13.64
2018-11-05T11:20:24.818Z,13.66
2018-11-05T11:22:53.533Z,13.65
2018-11-05T11:25:22.470Z,13.76
2018-11-05T11:27:51.387Z,13.67
2018-11-05T11:30:20.125Z,13.64
2018-11-05T11:32:49.682Z,13.76
2018-11-05T11:35:18.502Z,13.85
2018-11-05T11:37:47.330Z,13.99
2018-11-05T11:40:19.988Z,14.02
2018-11-05T11:42:49.343Z,13.94
2018-11-05T11:45:19.357Z,13.90
2018-11-05T11:47:48.173Z,13.91
2018-11-05T11:50:17.684Z,14.00
2018-11-05T11:52:46.656Z,13.96
2018-11-05T11:55:17.816Z,13.91
2018-11-05T11:57:46.661Z,13.94
2018-11-05T12:00:20.050Z,13.97
2018-11-05T12:02:49.525Z,13.88
2018-11-05T12:05:18.378Z,13.80
2018-11-05T12:07:47.619Z,13.88
2018-11-05T12:10:24.575Z,13.77
2018-11-05T12:12:53.485Z,13.72
2018-11-05T12:15:23.020Z,13.79
2018-11-05T12:17:52.690Z,13.86
2018-11-05T12:20:23.209Z,13.87
2018-11-05T12:22:52.426Z,13.90
2018-11-05T12:25:21.269Z,13.79
2018-11-05T12:27:50.211Z,13.82
2018-11-05T12:30:22.323Z,13.83
2018-11-05T12:32:52.136Z,13.76
2018-11-05T12:35:20.976Z,13.78
2018-11-05T12:37:50.931Z,13.89
2018-11-05T12:40:21.064Z,13.85
2018-11-05T12:42:50.668Z,13.85
2018-11-05T12:45:19.595Z,13.81
2018-11-05T12:47:48.747Z,13.88
2018-11-05T12:50:19.692Z,13.87
2018-11-05T12:52:49.603Z,13.99
2018-11-05T12:55:18.422Z,13.98
2018-11-05T12:57:47.597Z,13.90
2018-11-05T13:00:19.452Z,13.97
2018-11-05T13:02:53.186Z,13.87
2018-11-05T13:05:22.585Z,13.77
2018-11-05T13:07:51.587Z,13.74
2018-11-05T13:10:20.768Z,13.71
2018-11-05T13:12:49.760Z,13.72
2018-11-05T13:15:18.662Z,13.58
2018-11-05T13:17:47.391Z,13.60
2018-11-05T13:20:20.386Z,13.64
2018-11-05T13:22:49.270Z,13.75
2018-11-05T13:25:18.207Z,13.80
2018-11-05T13:27:49.148Z,13.67
2018-11-05T13:30:18.343Z,13.65
2018-11-05T13:32:47.253Z,13.69
2018-11-05T13:35:17.523Z,13.82
2018-11-05T13:37:46.761Z,13.82
2018-11-05T13:40:16.511Z,13.84
2018-11-05T13:42:45.898Z,13.79
2018-11-05T13:45:15.287Z,13.84
2018-11-05T13:47:45.984Z,13.83
2018-11-05T13:50:14.581Z,13.80
2018-11-05T13:52:43.996Z,13.82
2018-11-05T13:55:15.788Z,13.86
2018-11-05T13:57:45.569Z,13.79
2018-11-05T14:00:15.813Z,13.77
2018-11-05T14:02:44.639Z,13.81
2018-11-05T14:05:14.042Z,13.88
2018-11-05T14:07:43.920Z,13.81
2018-11-05T14:10:18.178Z,13.68
2018-11-05T14:12:47.284Z,13.73
2018-11-05T14:15:15.956Z,13.73
2018-11-05T14:17:45.440Z,13.71
2018-11-05T14:20:15.250Z,13.66
2018-11-05T14:22:44.184Z,13.73
2018-11-05T14:25:15.260Z,13.81
2018-11-05T14:27:46.492Z,13.74
2018-11-05T14:30:15.308Z,13.64
2018-11-05T14:32:45.380Z,13.62
2018-11-05T14:35:14.220Z,13.47
2018-11-05T14:37:43.794Z,13.47
2018-11-05T14:40:14.303Z,13.56
2018-11-05T14:42:43.969Z,13.65
2018-11-05T14:45:15.942Z,13.72
2018-11-05T14:47:45.514Z,13.74
2018-11-05T14:50:16.806Z,13.67
2018-11-05T14:52:45.656Z,13.49
2018-11-05T14:55:16.070Z,13.37
2018-11-05T14:57:45.865Z,13.41
2018-11-05T15:00:16.648Z,13.25
2018-11-05T15:02:46.279Z,13.16
2018-11-05T15:05:15.600Z,13.19
2018-11-05T15:07:45.300Z,13.26
2018-11-05T15:10:16.590Z,13.15
2018-11-05T15:12:45.468Z,13.07
2018-11-05T15:15:14.863Z,13.13
2018-11-05T15:17:44.414Z,13.21
2018-11-05T15:20:17.427Z,13.14
2018-11-05T15:22:45.978Z,13.12
2018-11-05T15:25:15.130Z,13.10
2018-11-05T15:27:44.047Z,13.21
2018-11-05T15:30:16.172Z,13.27
2018-11-05T15:32:45.098Z,13.23
2018-11-05T15:35:14.169Z,13.26
2018-11-05T15:37:44.559Z,13.27
2018-11-05T15:40:15.478Z,13.23
2018-11-05T15:42:45.107Z,13.28
2018-11-05T15:45:15.188Z,13.31
2018-11-05T15:47:44.270Z,13.28
2018-11-05T15:50:15.998Z,13.30
2018-11-05T15:52:45.100Z,13.43
2018-11-05T15:55:14.238Z,13.42
2018-11-05T15:57:44.059Z,13.45
2018-11-05T16:00:20.964Z,13.37
2018-11-05T16:02:51.786Z,13.42
2018-11-05T16:05:20.670Z,13.53
2018-11-05T16:07:49.513Z,13.54
2018-11-05T16:10:18.704Z,13.50
2018-11-05T16:12:47.536Z,13.49
2018-11-05T16:15:16.314Z,13.55
2018-11-05T16:17:45.212Z,13.51
2018-11-05T16:20:17.447Z,13.46
2018-11-05T16:22:46.878Z,13.41
2018-11-05T16:25:15.634Z,13.46
2018-11-05T16:27:44.613Z,13.43
2018-11-05T16:30:15.701Z,13.39
2018-11-05T16:32:45.000Z,13.44
2018-11-05T16:35:14.126Z,13.45
2018-11-05T16:37:42.951Z,13.54
2018-11-05T16:40:14.333Z,13.52
2018-11-05T16:42:44.917Z,13.43
2018-11-05T16:45:14.072Z,13.47
2018-11-05T16:47:43.217Z,13.43
2018-11-05T16:50:21.683Z,13.39
2018-11-05T16:52:50.468Z,13.35
2018-11-05T16:55:19.286Z,13.39
2018-11-05T16:57:48.138Z,13.31
2018-11-05T17:00:17.468Z,13.38
2018-11-05T17:02:47.205Z,13.31
2018-11-05T17:05:15.757Z,13.39
2018-11-05T17:07:44.644Z,13.39
2018-11-05T17:10:14.976Z,13.43
2018-11-05T17:12:45.099Z,13.44
2018-11-05T17:15:15.255Z,13.37
2018-11-05T17:17:44.508Z,13.44
2018-11-05T17:20:16.851Z,13.41
2018-11-05T17:22:45.991Z,13.41
2018-11-05T17:25:15.175Z,13.36
2018-11-05T17:27:44.848Z,13.50
2018-11-05T17:30:17.323Z,13.54
2018-11-05T17:32:46.297Z,13.59
2018-11-05T17:35:15.757Z,13.63
2018-11-05T17:37:45.079Z,13.64
2018-11-05T17:40:15.500Z,13.65
2018-11-05T17:42:44.226Z,13.57
2018-11-05T17:45:15.396Z,13.59
2018-11-05T17:47:44.432Z,13.57
2018-11-05T17:50:15.616Z,13.59
2018-11-05T17:52:44.766Z,13.65
2018-11-05T17:55:14.660Z,13.66
2018-11-05T17:57:45.316Z,13.57
2018-11-05T18:00:19.899Z,13.57
2018-11-05T18:02:48.637Z,13.50
2018-11-05T18:05:17.414Z,13.39
2018-11-05T18:07:46.548Z,13.37
2018-11-05T18:10:15.317Z,13.41
2018-11-05T18:12:44.395Z,13.35
2018-11-05T18:15:14.530Z,13.40
2018-11-05T18:17:45.217Z,13.30
2018-11-05T18:20:15.156Z,13.29
2018-11-05T18:22:44.163Z,13.24
2018-11-05T18:25:15.179Z,13.25
2018-11-05T18:27:44.474Z,13.15
2018-11-05T18:30:14.879Z,13.11
2018-11-05T18:32:44.329Z,13.08
2018-11-05T18:35:14.923Z,13.03
2018-11-05T18:37:45.630Z,13.04
2018-11-05T18:40:15.518Z,12.94
2018-11-05T18:42:44.829Z,12.91
2018-11-05T18:45:14.442Z,12.87
2018-11-05T18:47:44.380Z,12.84
2018-11-05T18:50:15.515Z,12.77
2018-11-05T18:52:44.654Z,12.69
2018-11-05T18:55:15.619Z,12.62
2018-11-05T18:57:44.349Z,12.62
2018-11-05T19:00:19.154Z,12.61
2018-11-05T19:02:48.259Z,12.60
2018-11-05T19:05:17.458Z,12.61
2018-11-05T19:07:46.529Z,12.54
2018-11-05T19:10:15.391Z,12.52
2018-11-05T19:12:44.550Z,12.49
2018-11-05T19:15:15.368Z,12.49
2018-11-05T19:17:45.201Z,12.48
2018-11-05T19:20:14.234Z,12.45
2018-11-05T19:22:43.927Z,12.39
2018-11-05T19:25:13.726Z,12.32
2018-11-05T19:27:42.941Z,12.32
2018-11-05T19:30:17.320Z,12.29
2018-11-05T19:32:46.525Z,12.28
2018-11-05T19:35:15.332Z,12.27
2018-11-05T19:37:44.814Z,12.32
2018-11-05T19:40:15.176Z,12.25
2018-11-05T19:42:45.305Z,12.27
2018-11-05T19:45:16.266Z,12.29
2018-11-05T19:47:45.006Z,12.18
2018-11-05T19:50:17.041Z,12.17
2018-11-05T19:52:46.399Z,12.14
2018-11-05T19:55:16.302Z,12.23
2018-11-05T19:57:45.923Z,12.14
2018-11-05T20:00:24.569Z,12.08
2018-11-05T20:02:54.049Z,12.10
2018-11-05T20:05:22.915Z,12.14
2018-11-05T20:07:52.462Z,12.15
2018-11-05T20:10:21.359Z,12.12
2018-11-05T20:12:50.283Z,12.13
2018-11-05T20:15:19.475Z,12.09
2018-11-05T20:17:49.256Z,12.09
2018-11-05T20:20:19.357Z,12.00
2018-11-05T20:22:48.351Z,12.03
2018-11-05T20:25:17.501Z,12.05
2018-11-05T20:27:46.218Z,12.13
2018-11-05T20:30:18.320Z,12.08
2018-11-05T20:32:48.457Z,12.06
2018-11-05T20:35:16.794Z,12.04
2018-11-05T20:37:45.642Z,12.04
2018-11-05T20:40:16.987Z,12.10
2018-11-05T20:42:46.742Z,12.09
2018-11-05T20:45:17.171Z,12.03
2018-11-05T20:47:45.924Z,12.01
2018-11-05T20:50:15.791Z,12.03
2018-11-05T20:52:45.131Z,12.06
2018-11-05T20:55:15.743Z,11.99
2018-11-05T20:57:48.362Z,11.95
2018-11-05T21:00:19.139Z,12.06
2018-11-05T21:02:47.909Z,12.08
2018-11-05T21:05:16.767Z,12.13
2018-11-05T21:07:45.833Z,12.16
2018-11-05T21:10:15.448Z,12.17
2018-11-05T21:12:45.126Z,12.20
2018-11-05T21:15:16.260Z,12.15
2018-11-05T21:17:46.315Z,12.09
2018-11-05T21:20:15.302Z,12.05
2018-11-05T21:22:45.296Z,12.03
2018-11-05T21:25:14.808Z,12.02
2018-11-05T21:27:43.975Z,12.01
2018-11-05T21:30:14.878Z,11.97
2018-11-05T21:32:45.251Z,11.94
2018-11-05T21:35:16.509Z,11.89
2018-11-05T21:37:45.223Z,11.86
2018-11-05T21:40:16.195Z,11.81
2018-11-05T21:42:44.960Z,11.81
2018-11-05T21:45:15.493Z,11.76
2018-11-05T21:47:45.618Z,11.68
2018-11-05T21:50:16.241Z,11.65
2018-11-05T21:52:45.435Z,11.67
2018-11-05T21:55:14.897Z,11.63
2018-11-05T21:57:45.179Z,11.62
2018-11-05T22:00:19.407Z,11.66
2018-11-05T22:02:53.321Z,11.64
2018-11-05T22:05:22.519Z,11.66
2018-11-05T22:07:51.283Z,11.61
2018-11-05T22:10:19.987Z,11.60
2018-11-05T22:12:49.139Z,11.52
2018-11-05T22:15:18.186Z,11.52
2018-11-05T22:17:47.222Z,11.56
2018-11-05T22:20:16.175Z,11.58
2018-11-05T22:22:45.008Z,11.64
2018-11-05T22:25:13.672Z,11.69
2018-11-05T22:27:42.516Z,11.61
2018-11-05T22:30:12.147Z,11.54
2018-11-05T22:32:40.906Z,11.55
2018-11-05T22:35:09.934Z,11.50
2018-11-05T22:37:38.730Z,11.46
2018-11-05T22:40:10.400Z,11.39
2018-11-05T22:42:39.238Z,11.40
2018-11-05T22:45:08.477Z,11.30
2018-11-05T22:47:37.316Z,11.23
2018-11-05T22:50:06.469Z,11.19
2018-11-05T22:52:35.195Z,11.20
2018-11-05T22:55:04.142Z,11.19
2018-11-05T22:57:32.968Z,11.21
2018-11-05T23:00:01.791Z,11.08
2018-11-05T23:02:30.711Z,11.04
2018-11-05T23:04:59.440Z,11.07
2018-11-05T23:07:28.191Z,11.07
2018-11-05T23:09:56.955Z,11.01
2018-11-05T23:12:25.661Z,11.10
2018-11-05T23:14:54.377Z,11.11
2018-11-05T23:17:23.603Z,11.11
2018-11-05T23:19:52.510Z,11.15
2018-11-05T23:22:21.238Z,11.11
2018-11-05T23:24:49.985Z,11.11
2018-11-05T23:27:18.860Z,11.10
2018-11-05T23:29:47.631Z,11.13
2018-11-05T23:32:16.558Z,11.12
2018-11-05T23:34:45.266Z,11.07
2018-11-05T23:37:15.069Z,11.04
2018-11-05T23:39:43.897Z,11.02
2018-11-05T23:42:12.603Z,11.04
2018-11-05T23:44:41.310Z,11.03
2018-11-05T23:47:10.386Z,11.05
2018-11-05T23:49:39.122Z,11.05
2018-11-05T23:52:07.928Z,11.07
2018-11-05T23:54:36.782Z,11.08
2018-11-05T23:57:05.562Z,11.12
2018-11-05T23:59:34.280Z,11.06
